Time;durP1;ratioP1;P1;durP2;ratioP2;P2;SDS_P1;SDS_P2;PMS_P1;PMS_P2;Temp;Humidity;BMP_temperature;BMP_pressure;BME280_temperature;BME280_humidity;BME280_pressure;Samples;Min_cycle;Max_cycle;Signal;HPM_P1;HPM_P2
2023/09/05 00:01:52;;;;;;;;;6.00;5.75;;;;;19.83;70.85;102134.88;5013307;28;8946;-70
2023/09/05 00:04:19;;;;;;;;;3.50;2.75;;;;;19.86;70.83;102134.44;5013541;28;9593;-70
2023/09/05 00:06:49;;;;;;;;;3.00;3.00;;;;;19.88;70.65;102131.47;5013607;28;8843;-70
2023/09/05 00:09:19;;;;;;;;;2.00;2.00;;;;;19.88;70.60;102121.34;5010404;28;8953;-71
2023/09/05 00:11:46;;;;;;;;;5.00;3.50;;;;;19.82;70.50;102121.44;4993410;28;8916;-71
2023/09/05 00:14:13;;;;;;;;;3.25;3.25;;;;;19.82;70.63;102125.00;4997506;28;9633;-70
2023/09/05 00:16:39;;;;;;;;;2.00;2.00;;;;;19.80;70.70;102129.00;5013473;28;8827;-70
2023/09/05 00:19:06;;;;;;;;;3.25;3.25;;;;;19.81;70.94;102127.94;5012777;28;8889;-71
2023/09/05 00:21:33;;;;;;;;;5.50;5.00;;;;;19.84;70.80;102122.88;4993496;28;8833;-70
2023/09/05 00:24:31;;;;;;;;;5.75;5.75;;;;;19.84;70.81;102130.22;4993708;28;8923;-71
2023/09/05 00:27:00;;;;;;;;;6.00;3.50;;;;;19.82;71.04;102124.19;4992046;28;8837;-71
2023/09/05 00:29:29;;;;;;;;;3.00;2.50;;;;;19.81;71.32;102130.69;5008371;28;8848;-72
2023/09/05 00:31:59;;;;;;;;;5.00;4.25;;;;;19.78;71.33;102121.06;4994649;28;8866;-71
2023/09/05 00:34:27;;;;;;;;;3.00;3.00;;;;;19.78;71.71;102125.69;5005204;28;8843;-71
2023/09/05 00:36:54;;;;;;;;;4.25;4.25;;;;;19.74;71.75;102120.66;5013235;28;8827;-70
2023/09/05 00:39:20;;;;;;;;;6.00;5.00;;;;;19.72;71.86;102125.50;5011056;28;8823;-70
2023/09/05 00:41:47;;;;;;;;;3.75;3.00;;;;;19.70;71.75;102124.91;4991793;28;8841;-71
2023/09/05 00:44:14;;;;;;;;;3.75;3.75;;;;;19.70;72.01;102121.34;4991847;28;8912;-70
2023/09/05 00:46:45;;;;;;;;;6.00;4.25;;;;;19.69;72.03;102117.78;4995597;28;8835;-71
2023/09/05 00:49:15;;;;;;;;;4.50;4.00;;;;;19.72;71.94;102116.47;5012705;28;8835;-70
2023/09/05 00:51:50;;;;;;;;;5.00;3.75;;;;;19.72;71.93;102120.03;4991635;28;8849;-70
2023/09/05 00:54:18;;;;;;;;;2.00;2.00;;;;;19.73;71.83;102116.25;4994010;28;8903;-70
2023/09/05 00:56:45;;;;;;;;;3.00;3.00;;;;;19.72;72.00;102122.75;5011179;28;8901;-70
2023/09/05 00:59:12;;;;;;;;;5.25;5.25;;;;;19.66;71.89;102118.22;5011474;28;8842;-70
2023/09/05 01:01:40;;;;;;;;;7.00;7.00;;;;;19.60;72.16;102112.75;5007801;28;8843;-71
2023/09/05 01:04:09;;;;;;;;;10.00;9.25;;;;;19.51;72.67;102112.22;5011285;28;8839;-71
2023/09/05 01:06:39;;;;;;;;;9.75;9.25;;;;;19.46;73.16;102112.03;5011325;28;9071;-70
2023/09/05 01:09:21;;;;;;;;;10.75;9.25;;;;;19.40;73.74;102112.91;5000484;28;8837;-70
2023/09/05 01:11:48;;;;;;;;;10.50;9.75;;;;;19.33;74.23;102114.88;5011369;28;8839;-71
2023/09/05 01:14:16;;;;;;;;;10.75;9.75;;;;;19.26;74.51;102099.38;5007678;28;8870;-71
2023/09/05 01:16:45;;;;;;;;;7.25;7.25;;;;;19.27;74.60;102095.59;5010707;28;8843;-70
2023/09/05 01:19:14;;;;;;;;;5.50;5.50;;;;;19.28;75.23;102082.75;4999037;28;8855;-71
2023/09/05 01:22:08;;;;;;;;;7.50;7.00;;;;;19.35;75.00;102080.00;4974759;28;8834;-70
2023/09/05 01:24:35;;;;;;;;;10.00;6.00;;;;;19.33;74.63;102073.94;4992639;28;8968;-70
2023/09/05 01:27:03;;;;;;;;;8.75;7.00;;;;;19.37;74.76;102069.69;4992679;28;8852;-70
2023/09/05 01:29:35;;;;;;;;;7.00;6.25;;;;;19.43;74.60;102074.25;5001417;28;8857;-71
2023/09/05 01:32:03;;;;;;;;;4.00;4.00;;;;;19.47;74.43;102075.47;5007673;28;8857;-70
2023/09/05 01:34:30;;;;;;;;;5.75;5.00;;;;;19.49;74.15;102067.91;5016870;28;8823;-71
2023/09/05 01:36:57;;;;;;;;;5.75;5.75;;;;;19.48;74.02;102068.94;5010970;28;8831;-70
2023/09/05 01:39:24;;;;;;;;;10.50;6.75;;;;;19.44;74.02;102057.63;4996111;28;8849;-71
2023/09/05 01:41:51;;;;;;;;;6.50;4.75;;;;;19.46;73.87;102054.69;4990777;28;8923;-70
2023/09/05 01:44:17;;;;;;;;;5.50;5.00;;;;;19.46;73.62;102050.06;4990801;28;8940;-70
2023/09/05 01:46:44;;;;;;;;;4.25;3.50;;;;;19.46;73.34;102047.34;5000407;28;8925;-71
2023/09/05 01:49:11;;;;;;;;;3.00;3.00;;;;;19.47;73.28;102045.44;5005889;28;8851;-70
2023/09/05 01:51:37;;;;;;;;;4.00;4.00;;;;;19.48;73.08;102033.44;5011370;28;8909;-70
2023/09/05 01:54:04;;;;;;;;;4.75;4.25;;;;;19.46;72.93;102036.41;5011552;28;8855;-71
2023/09/05 01:56:30;;;;;;;;;9.00;8.50;;;;;19.42;72.53;102027.00;5010250;28;8924;-70
2023/09/05 01:58:57;;;;;;;;;7.00;4.25;;;;;19.36;72.48;102025.16;5001551;28;8818;-71
2023/09/05 02:01:23;;;;;;;;;6.75;4.25;;;;;19.32;72.31;102034.03;5009555;28;8902;-70
2023/09/05 02:03:50;;;;;;;;;7.75;7.75;;;;;19.23;72.34;102031.56;5010170;28;8846;-70
2023/09/05 02:06:16;;;;;;;;;6.00;4.00;;;;;19.22;72.56;102027.16;5011368;28;8838;-71
2023/09/05 02:08:43;;;;;;;;;3.25;3.25;;;;;19.21;72.48;102028.25;5000657;28;8831;-70
2023/09/05 02:11:09;;;;;;;;;8.50;8.50;;;;;19.17;72.43;102027.00;5009585;28;8847;-71
2023/09/05 02:13:36;;;;;;;;;4.25;4.25;;;;;19.18;72.45;102023.22;5002855;28;8861;-70
2023/09/05 02:16:03;;;;;;;;;5.50;5.50;;;;;19.21;72.19;102024.69;4991697;28;8841;-70
2023/09/05 02:18:29;;;;;;;;;7.25;6.00;;;;;19.21;72.22;102025.50;4999310;28;8835;-71
2023/09/05 02:21:03;;;;;;;;;3.75;3.75;;;;;19.24;72.11;102027.81;5009287;28;8843;-71
2023/09/05 02:23:30;;;;;;;;;4.50;4.50;;;;;19.23;72.00;102020.66;5011054;28;8847;-70
2023/09/05 02:25:58;;;;;;;;;7.50;5.50;;;;;19.22;71.99;102021.72;5009770;28;8909;-71
2023/09/05 02:28:25;;;;;;;;;6.50;6.50;;;;;19.19;72.05;102019.41;5001270;28;8834;-71
2023/09/05 02:30:52;;;;;;;;;6.25;5.75;;;;;19.16;72.10;102014.44;5006071;28;8825;-71
2023/09/05 02:33:19;;;;;;;;;8.00;5.25;;;;;19.12;72.36;102010.47;4997316;28;8859;-71
2023/09/05 02:35:48;;;;;;;;;1.50;1.50;;;;;19.09;72.26;102008.19;5002740;28;8831;-70
2023/09/05 02:38:15;;;;;;;;;8.00;6.50;;;;;19.06;72.29;102010.53;5003374;28;8829;-69
2023/09/05 02:40:46;;;;;;;;;3.00;3.00;;;;;19.01;72.49;102019.38;4990744;28;8841;-71
2023/09/05 02:43:13;;;;;;;;;3.00;3.00;;;;;18.97;72.57;102015.41;4973849;28;8853;-69
2023/09/05 02:45:50;;;;;;;;;6.75;5.75;;;;;18.93;72.67;102009.56;4991133;28;8829;-70
2023/09/05 02:48:16;;;;;;;;;6.00;6.00;;;;;18.89;73.05;102010.22;4992311;28;9191;-71
2023/09/05 02:50:43;;;;;;;;;3.25;3.25;;;;;18.87;72.92;102010.44;5008587;28;8835;-69
2023/09/05 02:53:09;;;;;;;;;7.50;6.00;;;;;18.85;72.99;102011.72;5004838;28;8826;-70
2023/09/05 02:55:43;;;;;;;;;7.00;7.00;;;;;18.82;73.02;102010.28;4989769;28;9610;-71
2023/09/05 02:58:11;;;;;;;;;6.75;6.75;;;;;18.77;72.97;102016.38;4974203;28;8883;-70
2023/09/05 03:00:38;;;;;;;;;5.50;5.50;;;;;18.75;73.25;102013.03;4989636;28;8874;-71
2023/09/05 03:03:04;;;;;;;;;6.25;6.25;;;;;18.74;73.10;102013.25;5000898;28;8843;-70
2023/09/05 03:05:31;;;;;;;;;6.25;5.25;;;;;18.71;73.17;102008.25;5010390;28;8857;-70
2023/09/05 03:07:58;;;;;;;;;6.50;5.25;;;;;18.69;73.21;102013.91;4989061;28;8849;-71
2023/09/05 03:10:24;;;;;;;;;8.50;6.75;;;;;18.67;73.21;102006.97;5000703;28;8916;-70
2023/09/05 03:12:51;;;;;;;;;6.25;6.25;;;;;18.65;72.96;102011.81;5007663;28;8834;-71
2023/09/05 03:15:20;;;;;;;;;6.00;6.00;;;;;18.62;72.99;101999.47;4989671;28;8845;-70
2023/09/05 03:17:47;;;;;;;;;4.00;4.00;;;;;18.63;72.81;101995.66;4991558;28;8825;-71
2023/09/05 03:20:15;;;;;;;;;6.00;6.00;;;;;18.63;72.69;102003.84;5009163;28;8973;-69
2023/09/05 03:22:42;;;;;;;;;6.00;6.00;;;;;18.64;72.41;101993.81;5005748;28;8859;-70
2023/09/05 03:25:08;;;;;;;;;4.50;4.50;;;;;18.64;72.35;102002.81;5001850;28;8853;-70
2023/09/05 03:27:35;;;;;;;;;7.50;5.00;;;;;18.64;72.29;101997.34;5007532;28;8838;-70
2023/09/05 03:30:02;;;;;;;;;4.50;4.50;;;;;18.65;72.28;101990.00;4973109;28;8857;-70
2023/09/05 03:32:29;;;;;;;;;7.75;6.75;;;;;18.64;71.81;101989.19;4991032;28;8968;-68
2023/09/05 03:34:55;;;;;;;;;3.00;3.00;;;;;18.64;72.00;101994.63;5013550;28;8847;-69
2023/09/05 03:37:23;;;;;;;;;4.75;4.25;;;;;18.64;71.88;101991.91;5007272;28;8853;-69
2023/09/05 03:39:49;;;;;;;;;3.25;3.00;;;;;18.64;71.81;101989.19;4996323;28;8823;-69
2023/09/05 03:42:16;;;;;;;;;3.25;3.25;;;;;18.64;71.66;101986.44;5014263;28;8843;-69
2023/09/05 03:44:43;;;;;;;;;2.00;2.00;;;;;18.64;71.49;101981.00;5012820;28;8850;-68
2023/09/05 03:47:10;;;;;;;;;3.00;3.00;;;;;18.65;71.33;101981.81;5013024;28;9796;-69
2023/09/05 03:49:36;;;;;;;;;5.25;3.50;;;;;18.64;71.20;101975.53;4979802;28;9576;-69
2023/09/05 03:52:03;;;;;;;;;3.00;3.00;;;;;18.64;71.29;101972.81;5009050;28;9666;-69
2023/09/05 03:54:29;;;;;;;;;7.25;6.25;;;;;18.62;71.20;101974.91;5011504;28;8912;-69
2023/09/05 03:56:56;;;;;;;;;4.50;4.50;;;;;18.60;71.32;101971.59;5013827;28;8823;-68
2023/09/05 03:59:22;;;;;;;;;5.25;5.25;;;;;18.59;71.24;101971.78;5012450;28;8861;-69
2023/09/05 04:01:49;;;;;;;;;5.25;4.75;;;;;18.60;71.27;101979.75;5012086;28;8842;-69
2023/09/05 04:04:15;;;;;;;;;2.75;2.75;;;;;18.58;71.31;101968.22;5008112;28;8842;-69
2023/09/05 04:06:42;;;;;;;;;4.00;4.00;;;;;18.60;71.00;101966.13;5011784;28;8878;-68
2023/09/05 04:09:11;;;;;;;;;4.25;4.25;;;;;18.60;71.05;101968.84;5010344;28;8843;-69
2023/09/05 04:11:37;;;;;;;;;3.00;3.00;;;;;18.60;70.95;101963.41;4995843;28;9623;-69
2023/09/05 04:14:04;;;;;;;;;4.25;4.25;;;;;18.60;71.06;101957.13;5007627;28;8865;-68
2023/09/05 04:16:30;;;;;;;;;4.00;3.75;;;;;18.60;70.87;101957.13;4992735;28;8911;-68
2023/09/05 04:18:57;;;;;;;;;3.00;3.00;;;;;18.60;70.97;101957.94;5001145;28;8827;-69
2023/09/05 04:21:23;;;;;;;;;8.25;5.50;;;;;18.59;70.78;101967.16;4997457;28;8959;-69
2023/09/05 04:23:50;;;;;;;;;3.50;3.50;;;;;18.58;70.64;101968.22;5013369;28;8842;-69
2023/09/05 04:26:16;;;;;;;;;3.00;3.00;;;;;18.57;70.55;101974.75;5013605;28;9608;-69
2023/09/05 04:28:43;;;;;;;;;3.50;3.50;;;;;18.56;70.71;101970.34;5013577;28;9562;-69
2023/09/05 04:31:09;;;;;;;;;4.50;3.00;;;;;18.56;70.89;101973.06;5012643;28;8831;-70
2023/09/05 04:33:40;;;;;;;;;4.50;4.50;;;;;18.57;70.71;101976.63;5012766;28;8842;-69
2023/09/05 04:36:08;;;;;;;;;3.25;3.25;;;;;18.56;70.42;101977.69;5010207;28;8855;-69
2023/09/05 04:38:36;;;;;;;;;5.00;5.00;;;;;18.55;70.36;101979.56;5013321;28;8827;-68
2023/09/05 04:41:03;;;;;;;;;2.00;2.00;;;;;18.53;70.50;101984.41;5012897;28;8853;-69
2023/09/05 04:43:30;;;;;;;;;6.00;4.00;;;;;18.50;70.26;101980.22;5013259;28;9600;-68
2023/09/05 04:45:57;;;;;;;;;4.75;4.75;;;;;18.50;70.56;101976.66;5010379;28;9009;-69
2023/09/05 04:48:24;;;;;;;;;3.25;3.25;;;;;18.47;70.57;101982.56;5013106;28;8827;-69
2023/09/05 04:50:51;;;;;;;;;3.00;3.00;;;;;18.43;70.86;101976.72;5000325;28;8882;-69
2023/09/05 04:53:18;;;;;;;;;6.25;4.00;;;;;18.39;70.84;101978.22;5008572;28;8931;-69
2023/09/05 04:55:45;;;;;;;;;5.00;3.00;;;;;18.40;70.89;101976.31;5004974;28;8836;-69
2023/09/05 04:58:14;;;;;;;;;5.00;5.00;;;;;18.38;70.89;101978.41;5022933;28;8907;-69
2023/09/05 05:00:41;;;;;;;;;3.50;3.50;;;;;18.37;70.75;101977.59;5032185;28;8860;-69
2023/09/05 05:03:08;;;;;;;;;2.00;2.00;;;;;18.35;70.61;101979.72;5018583;28;8932;-69
2023/09/05 05:05:36;;;;;;;;;3.00;3.00;;;;;18.35;70.57;101974.25;5009782;28;8835;-69
2023/09/05 05:08:02;;;;;;;;;5.25;4.50;;;;;18.35;70.75;101971.53;4993692;28;8833;-70
2023/09/05 05:10:30;;;;;;;;;3.50;2.75;;;;;18.34;70.61;101974.47;4992046;28;8934;-69
2023/09/05 05:12:56;;;;;;;;;2.75;2.75;;;;;18.34;70.92;101974.47;5007284;28;8841;-71
2023/09/05 05:15:23;;;;;;;;;3.00;3.00;;;;;18.36;70.78;101970.47;5011574;28;8841;-70
2023/09/05 05:17:49;;;;;;;;;5.50;4.75;;;;;18.35;70.52;101968.81;5008303;28;8835;-71
2023/09/05 05:20:18;;;;;;;;;4.25;4.25;;;;;18.35;70.48;101967.94;5011986;28;8843;-71
2023/09/05 05:22:44;;;;;;;;;4.50;4.50;;;;;18.34;70.61;101964.38;5031785;28;8970;-70
2023/09/05 05:25:10;;;;;;;;;3.00;3.00;;;;;18.34;70.74;101972.56;5016446;28;8877;-71
2023/09/05 05:27:37;;;;;;;;;2.75;2.75;;;;;18.34;70.51;101960.81;4991324;28;8845;-70
2023/09/05 05:30:05;;;;;;;;;3.25;3.00;;;;;18.34;70.54;101971.72;4992371;28;9409;-70
2023/09/05 05:32:32;;;;;;;;;4.00;4.00;;;;;18.34;70.91;101974.47;4993275;28;8925;-70
2023/09/05 05:34:58;;;;;;;;;3.50;3.50;;;;;18.35;70.64;101976.13;5003644;28;9582;-71
2023/09/05 05:37:25;;;;;;;;;7.00;5.25;;;;;18.35;70.56;101978.84;5011980;28;8843;-70
2023/09/05 05:39:51;;;;;;;;;2.25;2.25;;;;;18.36;70.44;101975.91;5009906;28;8931;-70
2023/09/05 05:42:18;;;;;;;;;5.00;4.00;;;;;18.35;70.74;101967.94;5025208;28;8902;-70
2023/09/05 05:44:45;;;;;;;;;2.25;2.25;;;;;18.34;70.33;101958.09;5005477;28;8821;-70
2023/09/05 05:47:11;;;;;;;;;5.00;4.00;;;;;18.35;70.29;101959.75;4991033;28;8826;-70
2023/09/05 05:49:38;;;;;;;;;2.00;2.00;;;;;18.33;69.92;101964.63;4995479;28;8898;-70
2023/09/05 05:52:05;;;;;;;;;3.50;3.00;;;;;18.34;70.08;101969.00;4997613;28;8867;-71
2023/09/05 05:54:31;;;;;;;;;2.50;2.50;;;;;18.33;69.94;101965.44;5006882;28;8847;-70
2023/09/05 05:56:58;;;;;;;;;6.25;6.25;;;;;18.34;69.84;101969.00;5011226;28;9557;-70
2023/09/05 05:59:25;;;;;;;;;3.50;3.50;;;;;18.37;69.97;101960.41;5010368;28;9660;-71
2023/09/05 06:01:52;;;;;;;;;4.00;4.00;;;;;18.37;69.89;101952.22;5011262;28;8843;-71
2023/09/05 06:04:19;;;;;;;;;6.00;5.00;;;;;18.36;69.76;101962.28;5006861;28;8904;-71
2023/09/05 06:06:48;;;;;;;;;5.75;5.50;;;;;18.37;69.77;101961.22;4999604;28;8871;-71
2023/09/05 06:09:18;;;;;;;;;3.50;3.50;;;;;18.36;69.65;101964.19;5004170;28;8903;-70
2023/09/05 06:11:46;;;;;;;;;5.00;5.00;;;;;18.40;69.43;101971.69;5025919;28;8827;-70
2023/09/05 06:14:16;;;;;;;;;4.00;4.00;;;;;18.42;69.45;101971.47;5012457;28;8867;-71
2023/09/05 06:16:47;;;;;;;;;3.00;2.25;;;;;18.43;69.35;101971.28;5011429;28;8853;-70
2023/09/05 06:19:14;;;;;;;;;3.50;3.50;;;;;18.45;69.36;101982.78;5009810;28;8949;-70
2023/09/05 06:21:45;;;;;;;;;3.00;3.00;;;;;18.45;69.19;101980.06;5005688;28;8870;-70
2023/09/05 06:24:13;;;;;;;;;6.50;4.50;;;;;18.48;69.45;101984.25;5006416;28;8827;-70
2023/09/05 06:26:41;;;;;;;;;3.00;3.00;;;;;18.50;69.40;101982.94;5009566;28;9590;-70
2023/09/05 06:29:08;;;;;;;;;3.75;3.75;;;;;18.51;68.86;101979.19;5005571;28;8837;-72
2023/09/05 06:31:35;;;;;;;;;3.00;3.00;;;;;18.49;68.97;101984.00;4990880;28;9576;-70
2023/09/05 06:34:02;;;;;;;;;5.00;5.00;;;;;18.51;69.02;101983.78;4999050;28;8970;-70
2023/09/05 06:36:28;;;;;;;;;4.50;3.00;;;;;18.56;68.87;101983.16;5006141;28;8837;-71
2023/09/05 06:38:55;;;;;;;;;4.50;3.00;;;;;18.58;68.92;101987.31;4991277;28;9551;-70
2023/09/05 06:41:21;;;;;;;;;6.25;5.00;;;;;18.58;68.94;101981.84;4989492;28;8834;-70
2023/09/05 06:43:52;;;;;;;;;5.00;5.00;;;;;18.56;68.41;101983.16;4992374;28;8905;-70
2023/09/05 06:46:19;;;;;;;;;3.25;3.00;;;;;18.57;68.36;101980.19;5001914;28;9595;-71
2023/09/05 06:48:45;;;;;;;;;2.25;2.25;;;;;18.60;68.35;101982.50;4996866;28;8827;-71
2023/09/05 06:51:12;;;;;;;;;4.00;4.00;;;;;18.64;68.21;101980.16;5010250;28;8839;-70
2023/09/05 06:53:39;;;;;;;;;4.00;4.00;;;;;18.68;67.97;101979.50;4992807;28;8945;-71
2023/09/05 06:56:06;;;;;;;;;3.00;2.75;;;;;18.72;67.80;101985.38;4992801;28;8921;-70
2023/09/05 06:58:33;;;;;;;;;2.50;2.00;;;;;18.76;67.80;101975.69;5009287;28;8924;-70
2023/09/05 07:01:04;;;;;;;;;2.00;2.00;;;;;18.82;67.75;101982.16;4990465;28;8894;-70
2023/09/05 07:03:31;;;;;;;;;3.00;3.00;;;;;18.85;67.35;101976.25;5009193;28;8851;-71
2023/09/05 07:05:58;;;;;;;;;3.50;3.50;;;;;18.84;66.99;101978.16;5008344;28;8850;-70
2023/09/05 07:08:33;;;;;;;;;4.50;4.50;;;;;18.89;66.89;101977.50;5004028;28;8869;-71
2023/09/05 07:11:00;;;;;;;;;3.50;3.50;;;;;18.92;67.08;101971.56;5005673;28;8846;-69
2023/09/05 07:13:26;;;;;;;;;1.50;1.50;;;;;18.97;66.88;101980.78;5008556;28;8823;-70
2023/09/05 07:15:53;;;;;;;;;3.00;2.00;;;;;19.00;66.87;101974.88;4992019;28;8851;-70
2023/09/05 07:18:20;;;;;;;;;5.00;3.00;;;;;19.00;66.74;101980.34;5008858;28;8835;-70
2023/09/05 07:20:46;;;;;;;;;5.50;5.50;;;;;19.06;66.78;101975.88;5005161;28;8861;-70
2023/09/05 07:23:13;;;;;;;;;2.75;2.75;;;;;19.11;66.79;101976.03;5003933;28;8913;-70
2023/09/05 07:25:39;;;;;;;;;3.25;1.75;;;;;19.16;66.58;101969.91;5007886;28;8865;-71
2023/09/05 07:28:06;;;;;;;;;3.50;3.00;;;;;19.18;66.62;101982.28;5010349;28;8838;-71
2023/09/05 07:30:33;;;;;;;;;4.00;4.00;;;;;19.22;66.71;101988.94;5009680;28;8970;-71
2023/09/05 07:33:00;;;;;;;;;4.50;4.50;;;;;19.27;66.36;101974.63;5006804;28;8835;-71
2023/09/05 07:35:26;;;;;;;;;3.00;3.00;;;;;19.29;66.36;101977.16;5009896;28;8839;-71
2023/09/05 07:37:53;;;;;;;;;4.25;4.25;;;;;19.31;66.13;101975.84;4993732;28;8849;-70
2023/09/05 07:40:22;;;;;;;;;4.00;4.00;;;;;19.35;65.95;101970.78;4990268;28;8876;-70
2023/09/05 07:42:50;;;;;;;;;2.75;2.75;;;;;19.38;65.77;101965.72;4990383;28;8854;-71
2023/09/05 07:45:17;;;;;;;;;3.00;3.00;;;;;19.43;66.22;101970.50;4997512;28;9779;-70
2023/09/05 07:47:43;;;;;;;;;3.00;2.25;;;;;19.48;66.11;101965.19;5001280;28;8823;-70
2023/09/05 07:50:10;;;;;;;;;3.75;3.00;;;;;19.50;66.06;101966.63;5008275;28;8839;-70
2023/09/05 07:52:37;;;;;;;;;4.00;3.25;;;;;19.57;65.89;101968.44;5010009;28;8835;-71
2023/09/05 07:55:04;;;;;;;;;3.00;3.00;;;;;19.61;65.72;101966.97;5010511;28;8842;-71
2023/09/05 07:57:31;;;;;;;;;3.50;3.50;;;;;19.66;65.75;101970.69;5008579;28;8862;-71
2023/09/05 07:59:57;;;;;;;;;5.50;2.50;;;;;19.70;65.47;101977.38;4988437;28;8814;-71
2023/09/05 08:02:24;;;;;;;;;4.75;4.75;;;;;19.74;65.41;101966.81;4995516;28;8895;-71
2023/09/05 08:04:50;;;;;;;;;2.75;2.75;;;;;19.81;65.47;101978.53;5008551;28;8843;-71
2023/09/05 08:07:17;;;;;;;;;4.25;4.25;;;;;19.84;65.35;101977.22;5008004;28;8928;-71
2023/09/05 08:09:44;;;;;;;;;3.00;3.00;;;;;19.90;65.12;101973.59;5009534;28;8827;-69
2023/09/05 08:12:10;;;;;;;;;3.50;3.50;;;;;19.93;65.02;101973.97;5005570;28;8862;-70
2023/09/05 08:14:37;;;;;;;;;4.75;4.75;;;;;19.98;64.53;101965.91;5001004;28;8865;-70
2023/09/05 08:17:04;;;;;;;;;8.00;5.00;;;;;20.07;63.90;101963.69;4998876;28;8847;-71
2023/09/05 08:19:31;;;;;;;;;4.00;3.00;;;;;20.13;64.06;101960.00;5011345;28;8827;-70
2023/09/05 08:21:58;;;;;;;;;6.25;5.00;;;;;20.20;63.69;101970.88;5006912;28;8827;-72
2023/09/05 08:24:24;;;;;;;;;3.50;2.50;;;;;20.25;63.66;101968.28;5010162;28;8909;-71
2023/09/05 08:26:51;;;;;;;;;2.75;2.75;;;;;20.32;63.91;101965.47;5009980;28;8913;-70
2023/09/05 08:29:18;;;;;;;;;2.75;2.75;;;;;20.37;63.67;101971.06;5011882;28;9017;-71
2023/09/05 08:31:45;;;;;;;;;4.00;3.00;;;;;20.43;63.70;101972.88;5007386;28;8827;-71
2023/09/05 08:34:12;;;;;;;;;3.00;3.00;;;;;20.47;63.87;101968.63;5006969;28;8857;-70
2023/09/05 08:36:38;;;;;;;;;2.00;2.00;;;;;20.54;63.67;101966.66;4993686;28;8866;-71
2023/09/05 08:39:05;;;;;;;;;3.00;2.25;;;;;20.59;63.43;101972.25;5011539;28;8862;-71
2023/09/05 08:41:31;;;;;;;;;3.00;2.00;;;;;20.64;62.58;101966.91;5000743;28;8853;-71
2023/09/05 08:43:58;;;;;;;;;6.25;5.50;;;;;20.68;62.42;101959.91;5006774;28;8855;-71
2023/09/05 08:46:26;;;;;;;;;1.25;1.25;;;;;20.77;61.84;101960.38;4993396;28;8836;-71
2023/09/05 08:48:52;;;;;;;;;3.00;2.75;;;;;20.86;61.33;101958.13;5012679;28;8839;-71
2023/09/05 08:51:30;;;;;;;;;2.25;2.25;;;;;20.90;61.28;101964.81;5007756;28;8846;-71
2023/09/05 08:54:00;;;;;;;;;2.75;2.25;;;;;20.91;60.96;101956.38;4992970;28;8868;-70
2023/09/05 08:56:27;;;;;;;;;5.00;4.00;;;;;20.92;61.44;101958.03;4991605;28;8853;-71
2023/09/05 08:58:55;;;;;;;;;2.75;2.75;;;;;20.98;60.64;101957.09;4991375;28;8843;-71
2023/09/05 09:01:24;;;;;;;;;2.25;2.25;;;;;21.05;60.89;101956.97;5004398;28;8824;-71
2023/09/05 09:03:54;;;;;;;;;2.00;2.00;;;;;21.11;60.79;101955.22;5012534;28;8986;-71
2023/09/05 09:06:24;;;;;;;;;2.00;2.00;;;;;21.15;60.96;101951.75;5011711;28;8827;-70
2023/09/05 09:08:52;;;;;;;;;1.25;1.25;;;;;21.19;60.57;101955.69;4997396;28;8894;-71
2023/09/05 09:11:21;;;;;;;;;3.00;3.00;;;;;21.30;60.52;101947.69;5010346;28;8941;-70
2023/09/05 09:13:51;;;;;;;;;3.00;3.00;;;;;21.36;59.92;101950.34;5003966;28;9587;-70
2023/09/05 09:16:18;;;;;;;;;4.00;4.00;;;;;21.50;59.33;101952.81;4992608;28;8845;-71
2023/09/05 09:18:49;;;;;;;;;3.75;3.75;;;;;21.58;59.35;101961.50;4992474;28;9594;-70
2023/09/05 09:21:17;;;;;;;;;1.75;1.50;;;;;21.62;59.84;101964.59;4991608;28;8845;-71
2023/09/05 09:23:48;;;;;;;;;3.00;3.00;;;;;21.61;59.38;101961.03;5024130;28;8835;-70
2023/09/05 09:26:14;;;;;;;;;3.75;3.75;;;;;21.61;59.28;101972.00;5007551;28;8861;-71
2023/09/05 09:28:41;;;;;;;;;4.25;2.00;;;;;21.64;59.57;101970.69;4991113;28;8840;-71
2023/09/05 09:31:12;;;;;;;;;2.00;2.00;;;;;21.68;59.88;101980.09;4996019;28;8857;-70
2023/09/05 09:33:40;;;;;;;;;3.75;3.00;;;;;21.69;60.05;101976.28;5012196;28;8831;-71
2023/09/05 09:36:11;;;;;;;;;2.25;2.25;;;;;21.72;59.94;101982.13;5011533;28;8839;-71
2023/09/05 09:38:39;;;;;;;;;1.75;1.00;;;;;21.83;59.81;101982.31;4998176;28;8860;-71
2023/09/05 09:41:07;;;;;;;;;2.00;2.00;;;;;21.86;59.82;101979.09;5011403;28;8852;-71
2023/09/05 09:43:35;;;;;;;;;3.00;3.00;;;;;21.86;59.66;101982.66;5010570;28;8831;-70
2023/09/05 09:46:05;;;;;;;;;3.00;3.00;;;;;21.95;59.21;101983.94;5010882;28;8881;-71
2023/09/05 09:48:34;;;;;;;;;4.25;3.00;;;;;22.05;58.47;101983.34;5011498;28;8992;-71
2023/09/05 09:51:04;;;;;;;;;5.00;3.00;;;;;22.06;58.86;101981.44;5011097;28;8835;-71
2023/09/05 09:53:42;;;;;;;;;2.00;2.00;;;;;22.07;58.96;101981.19;5004629;28;8854;-70
2023/09/05 09:56:11;;;;;;;;;2.25;2.25;;;;;22.14;59.05;101970.09;4990528;28;9623;-71
2023/09/05 09:58:44;;;;;;;;;2.00;2.00;;;;;22.18;58.69;101982.25;5010138;28;8950;-71
2023/09/05 10:01:14;;;;;;;;;1.75;1.75;;;;;22.19;59.31;101973.78;4984565;28;8841;-71
2023/09/05 10:03:44;;;;;;;;;2.25;2.25;;;;;22.21;59.47;101979.03;4991888;28;8845;-71
2023/09/05 10:06:11;;;;;;;;;3.75;3.00;;;;;22.25;59.68;101971.97;4980709;28;8928;-71
2023/09/05 10:08:39;;;;;;;;;2.00;1.50;;;;;22.30;59.64;101974.81;4999997;28;8841;-71
2023/09/05 10:11:14;;;;;;;;;3.00;3.00;;;;;22.33;59.48;101963.34;5011088;28;9584;-72
2023/09/05 10:13:42;;;;;;;;;3.00;3.00;;;;;22.38;59.17;101963.44;5010639;28;8859;-70
2023/09/05 10:16:09;;;;;;;;;2.50;2.50;;;;;22.46;58.57;101962.22;5010352;28;9605;-71
2023/09/05 10:18:39;;;;;;;;;2.50;2.50;;;;;22.56;58.32;101950.59;5010345;28;8839;-72
2023/09/05 10:21:06;;;;;;;;;3.00;3.00;;;;;22.59;58.37;101950.09;5011130;28;8859;-71
2023/09/05 10:23:35;;;;;;;;;3.00;3.00;;;;;22.63;58.14;101948.53;4995149;28;8846;-71
2023/09/05 10:26:03;;;;;;;;;4.00;4.00;;;;;22.67;58.42;101946.94;5009443;28;8863;-72
2023/09/05 10:28:31;;;;;;;;;4.75;4.25;;;;;22.69;58.68;101950.28;5009666;28;8878;-71
2023/09/05 10:31:12;;;;;;;;;4.00;4.00;;;;;22.76;58.29;101948.19;5009985;28;8917;-71
2023/09/05 10:33:43;;;;;;;;;3.00;3.00;;;;;22.82;58.25;101949.94;5009416;28;8854;-71
2023/09/05 10:36:38;;;;;;;;;2.50;2.50;;;;;22.88;58.57;101942.63;5004553;28;8861;-72
2023/09/05 10:39:25;;;;;;;;;3.00;3.00;;;;;22.87;58.87;101946.44;5005058;28;8881;-71
2023/09/05 10:41:52;;;;;;;;;3.75;3.75;;;;;22.85;58.87;101943.97;5007171;28;8892;-71
2023/09/05 10:44:18;;;;;;;;;2.00;2.00;;;;;22.86;58.93;101942.88;5009168;28;8886;-70
2023/09/05 10:46:52;;;;;;;;;4.75;4.75;;;;;22.86;58.58;101942.88;5000626;28;9056;-71
2023/09/05 10:49:18;;;;;;;;;3.00;3.00;;;;;22.91;58.58;101942.16;5004711;28;8907;-71
2023/09/05 10:52:17;;;;;;;;;3.75;3.75;;;;;22.93;58.19;101934.53;5000614;28;8839;-71
2023/09/05 10:54:44;;;;;;;;;3.00;3.00;;;;;22.91;58.26;101936.66;5008716;28;8855;-71
2023/09/05 10:57:40;;;;;;;;;4.25;4.25;;;;;22.92;58.31;101932.84;5010905;28;8842;-72
2023/09/05 11:00:16;;;;;;;;;3.00;2.00;;;;;23.01;57.71;101927.75;5007448;28;9001;-70
2023/09/05 11:02:44;;;;;;;;;3.75;3.50;;;;;23.09;57.00;101927.31;5008922;28;8894;-72
2023/09/05 11:05:12;;;;;;;;;4.00;4.00;;;;;23.22;56.38;101926.16;5004707;28;8981;-71
2023/09/05 11:07:42;;;;;;;;;2.00;2.00;;;;;23.27;56.43;101918.00;5002070;28;8924;-71
2023/09/05 11:10:26;;;;;;;;;5.00;4.50;;;;;23.40;55.33;101928.59;5001016;28;8851;-71
2023/09/05 11:12:53;;;;;;;;;2.75;2.75;;;;;23.51;55.18;101935.91;5010837;28;8843;-70
2023/09/05 11:15:35;;;;;;;;;7.25;4.00;;;;;23.53;55.81;101928.22;5008913;28;8843;-70
2023/09/05 11:18:06;;;;;;;;;5.25;5.25;;;;;23.51;56.42;101930.41;5009117;28;8888;-70
2023/09/05 11:20:41;;;;;;;;;3.25;3.25;;;;;23.52;56.74;101926.56;5008604;28;9566;-70
2023/09/05 11:23:22;;;;;;;;;4.00;4.00;;;;;23.69;56.18;101918.28;4987478;28;8854;-70
2023/09/05 11:25:53;;;;;;;;;3.50;3.50;;;;;23.72;56.19;101915.03;5008201;28;8869;-70
2023/09/05 11:28:24;;;;;;;;;2.50;2.50;;;;;23.71;55.94;101915.31;4990975;28;8818;-69
2023/09/05 11:30:57;;;;;;;;;3.00;2.00;;;;;23.73;56.68;101910.38;4990382;28;8829;-70
2023/09/05 11:33:26;;;;;;;;;3.00;3.00;;;;;23.79;56.46;101912.94;4989298;28;8868;-68
2023/09/05 11:35:53;;;;;;;;;3.00;3.00;;;;;23.93;56.09;101905.09;5004259;28;8978;-68
2023/09/05 11:38:21;;;;;;;;;3.25;3.25;;;;;23.99;56.30;101906.00;4989876;28;8842;-69
2023/09/05 11:40:52;;;;;;;;;6.00;6.00;;;;;24.08;55.64;101905.28;5011421;28;8969;-68